»·PEaware :: ATLAS238 KBFI-CYYC

ATLAS238 :: KBFI-CYYC

FLIGHT INFORMATION

Flight Status: Arrived
Operator: Unknown
More flights by this operator :: More flights under this callsign
Pilot: Matthew M. (11790)
Aircraft: BOEING 767-300
(B763)
More flights by this aircraft type
Origin: KBFI Boeing Field/King Co Intl
United States
Destination: CYYC Calgary Intl
Canada
More flights between these airports :: More routes between these airports
Route: DIRECT
File this flight plan on PilotEdge
Remarks:
Altitude:
(Current/Filed)
17,000ft
Speed:
(Current/Filed)
450kts
Departed: 26-Jun-16 04:32 PM
Arrived: 26-Jun-16 07:38 PM
Distance/Time
Traveled:
389nm/3:06
Distance/Time
To Go:
Arrived

Flight Plot

Page will automatically refresh every two minutes.


Map Options




Map Legend


Flown Route
Filed Route
Departure Airport
Arrival Airport
Navaid (VOR, NDB)
Fix

Horizontal Profiles

Position Reports

Time Latitude Longitude Heading Altitude Ground
Speed
26-Jun-16 16:22 47.529034 -122.296619 62 32ft 0kts
26-Jun-16 16:23 47.529034 -122.296619 62 32ft 0kts
26-Jun-16 16:24 47.529034 -122.296619 62 32ft 0kts
26-Jun-16 16:25 47.528758 -122.297422 62 32ft 0kts
26-Jun-16 16:26 47.529618 -122.299545 246 32ft 0kts
26-Jun-16 16:27 47.527992 -122.302686 151 32ft 15kts
26-Jun-16 16:28 47.520354 -122.296289 149 32ft 45kts
26-Jun-16 16:29 47.518070 -122.292645 329 32ft 29kts
26-Jun-16 16:30 47.557130 -122.325972 329 871ft 251kts
26-Jun-16 16:31 47.616925 -122.309512 64 2705ft 244kts
26-Jun-16 16:32 47.637622 -122.213320 73 4487ft 251kts
26-Jun-16 16:33 47.657385 -122.111796 73 6303ft 258kts
26-Jun-16 16:34 47.683487 -122.011000 62 8109ft 266kts
26-Jun-16 16:35 47.722603 -121.915143 55 9920ft 275kts
26-Jun-16 16:36 47.766994 -121.820382 53 11727ft 282kts
26-Jun-16 16:37 47.813296 -121.724817 52 13535ft 287kts
26-Jun-16 16:38 47.861208 -121.626668 53 15352ft 294kts
26-Jun-16 16:39 47.909589 -121.527408 54 16927ft 306kts
26-Jun-16 16:40 47.960474 -121.422824 55 16987ft 305kts
26-Jun-16 16:41 48.010731 -121.319018 55 16992ft 313kts
26-Jun-16 16:42 48.061038 -121.214457 53 17007ft 305kts
26-Jun-16 16:43 48.110632 -121.111288 53 16996ft 304kts
26-Jun-16 16:44 48.159922 -121.008358 53 16999ft 303kts
26-Jun-16 16:45 48.209291 -120.905036 55 16997ft 306kts
26-Jun-16 16:46 48.260213 -120.797596 52 17024ft 320kts
26-Jun-16 16:47 48.311345 -120.689588 54 17007ft 314kts
26-Jun-16 16:48 48.362568 -120.580898 52 17007ft 323kts
26-Jun-16 16:49 48.413643 -120.472015 52 16986ft 311kts
26-Jun-16 16:50 48.463378 -120.365712 52 17029ft 310kts
26-Jun-16 16:51 48.512934 -120.259331 52 17029ft 310kts
26-Jun-16 16:52 48.562467 -120.152556 53 17028ft 310kts
26-Jun-16 16:53 48.611888 -120.045596 53 17027ft 309kts
26-Jun-16 16:54 48.661142 -119.938571 53 17028ft 310kts
26-Jun-16 16:55 48.709885 -119.832241 53 17023ft 310kts
26-Jun-16 16:56 48.759221 -119.724179 53 17020ft 311kts
26-Jun-16 16:57 48.808828 -119.615154 53 17021ft 318kts
26-Jun-16 16:58 48.859476 -119.503310 53 17019ft 318kts
26-Jun-16 16:59 48.909686 -119.392194 55 17016ft 317kts
26-Jun-16 17:00 48.958161 -119.284029 53 16994ft 303kts
26-Jun-16 17:01 49.005998 -119.176967 54 17012ft 313kts
26-Jun-16 17:02 49.056153 -119.064625 55 17024ft 321kts
26-Jun-16 17:03 49.105858 -118.952410 53 17015ft 320kts
26-Jun-16 17:04 49.155333 -118.840438 53 17009ft 314kts
26-Jun-16 17:05 49.203397 -118.731209 53 17001ft 312kts
26-Jun-16 17:06 49.252369 -118.619531 54 17010ft 315kts
26-Jun-16 17:07 49.301284 -118.507430 54 17012ft 316kts
26-Jun-16 17:08 49.350255 -118.394764 54 17014ft 318kts
26-Jun-16 17:09 49.399346 -118.281328 54 17000ft 321kts
26-Jun-16 17:10 49.448766 -118.166634 54 17030ft 321kts
26-Jun-16 17:11 49.497661 -118.052630 54 17028ft 321kts
26-Jun-16 17:12 49.547055 -117.936979 55 17031ft 321kts
26-Jun-16 17:13 49.595967 -117.821995 55 17040ft 322kts
26-Jun-16 17:14 49.645361 -117.705336 55 17040ft 322kts
26-Jun-16 17:15 49.694179 -117.589529 55 17040ft 322kts
26-Jun-16 17:16 49.743061 -117.473071 55 17040ft 322kts
26-Jun-16 17:17 49.791794 -117.356448 55 17041ft 322kts
26-Jun-16 17:18 49.840247 -117.239982 55 17041ft 322kts
26-Jun-16 17:19 49.888747 -117.122899 56 17042ft 322kts
26-Jun-16 17:20 49.936937 -117.006037 56 17042ft 322kts
26-Jun-16 17:21 49.985326 -116.888169 56 17048ft 322kts
26-Jun-16 17:22 50.033416 -116.770499 56 17053ft 322kts
26-Jun-16 17:23 50.081329 -116.652742 56 17055ft 321kts
26-Jun-16 17:24 50.128805 -116.535528 56 17056ft 321kts
26-Jun-16 17:25 50.176506 -116.417246 56 17061ft 321kts
26-Jun-16 17:26 50.224058 -116.298804 56 17060ft 321kts
26-Jun-16 17:27 50.263831 -116.199288 56 17021ft 322kts
26-Jun-16 17:28 50.318628 -116.061626 56 17096ft 319kts
26-Jun-16 17:29 50.357717 -115.962966 56 17096ft 319kts
26-Jun-16 17:30 50.404359 -115.844721 56 17100ft 318kts
26-Jun-16 17:31 50.450791 -115.726477 56 17109ft 317kts
26-Jun-16 17:32 50.496844 -115.608661 56 17109ft 316kts
26-Jun-16 17:33 50.542919 -115.490265 57 17109ft 316kts
26-Jun-16 17:34 50.588702 -115.372085 57 17109ft 316kts
26-Jun-16 17:35 50.634667 -115.252892 57 17109ft 316kts
26-Jun-16 17:36 50.680363 -115.133846 57 17109ft 316kts
26-Jun-16 17:37 50.725769 -115.015009 57 17109ft 316kts
26-Jun-16 17:38 50.771185 -114.895596 57 17109ft 316kts
26-Jun-16 17:39 50.816446 -114.776040 57 17109ft 316kts
26-Jun-16 17:40 50.861596 -114.656217 57 17109ft 316kts
26-Jun-16 17:41 50.906434 -114.536656 57 17109ft 315kts
26-Jun-16 17:42 50.951250 -114.416603 57 17108ft 315kts
26-Jun-16 17:43 50.995906 -114.296410 58 17108ft 315kts
26-Jun-16 17:44 51.039855 -114.177545 58 17109ft 315kts
26-Jun-16 17:45 51.083852 -114.057908 58 17108ft 314kts
26-Jun-16 17:46 51.138759 -113.956064 10 17089ft 306kts
26-Jun-16 17:47 51.193215 -114.032221 266 17104ft 306kts
26-Jun-16 17:48 51.128607 -114.095748 162 17108ft 322kts
26-Jun-16 17:49 51.086875 -113.985990 70 17107ft 315kts
26-Jun-16 17:50 51.156979 -113.945304 325 17102ft 304kts
26-Jun-16 17:51 51.159768 -114.062267 220 17102ft 313kts
26-Jun-16 17:52 51.084498 -114.035699 116 17109ft 321kts
26-Jun-16 17:53 51.116527 -113.925176 10 17105ft 308kts
26-Jun-16 17:54 51.171532 -114.001630 265 17115ft 306kts
26-Jun-16 17:55 51.107701 -114.065586 161 17108ft 321kts
26-Jun-16 17:56 51.081114 -113.948761 56 17103ft 315kts
26-Jun-16 17:57 51.154938 -113.938266 310 17108ft 304kts
26-Jun-16 17:58 51.138306 -114.052803 206 17111ft 315kts
26-Jun-16 17:59 51.069069 -113.996572 100 17108ft 320kts
26-Jun-16 18:00 51.117370 -113.903727 355 17106ft 306kts
26-Jun-16 18:01 51.157109 -114.001376 251 17117ft 309kts
26-Jun-16 18:02 51.083276 -114.037552 146 17105ft 323kts
26-Jun-16 18:03 51.075584 -113.915042 41 17110ft 311kts
26-Jun-16 18:04 51.147498 -113.935156 296 17115ft 304kts
26-Jun-16 18:05 51.112705 -114.041393 193 17113ft 321kts
26-Jun-16 18:06 51.051522 -113.962593 88 17114ft 319kts
26-Jun-16 18:07 51.110530 -113.889504 343 17115ft 303kts
26-Jun-16 18:08 51.135286 -113.999525 240 17119ft 313kts
26-Jun-16 18:09 51.058446 -114.023557 140 17114ft 324kts
26-Jun-16 18:10 51.057833 -113.900851 36 17114ft 310kts
26-Jun-16 18:11 51.128175 -113.931670 291 17114ft 305kts
26-Jun-16 18:12 51.093160 -114.043552 197 17109ft 319kts
26-Jun-16 18:13 51.028555 -113.974165 94 17115ft 320kts
26-Jun-16 18:14 51.082358 -113.891269 349 17113ft 303kts
26-Jun-16 18:15 51.118312 -113.996414 257 17118ft 311kts
26-Jun-16 18:16 51.048060 -114.047923 153 17115ft 324kts
26-Jun-16 18:17 51.030112 -113.927488 49 17113ft 312kts
26-Jun-16 18:18 51.103341 -113.931601 304 17116ft 304kts
26-Jun-16 18:19 51.092117 -114.053828 215 17111ft 317kts
26-Jun-16 18:20 51.017196 -114.016001 110 17115ft 322kts
26-Jun-16 18:21 51.054628 -113.911201 5 17113ft 305kts
26-Jun-16 18:22 51.109990 -113.994163 276 17112ft 309kts
26-Jun-16 18:23 51.053904 -114.076256 172 17114ft 323kts
26-Jun-16 18:24 51.013221 -113.969654 67 17115ft 316kts
26-Jun-16 18:25 51.083751 -113.935114 323 17115ft 303kts
26-Jun-16 18:26 51.098654 -114.055557 234 17111ft 313kts
26-Jun-16 18:27 51.020356 -114.056592 129 17115ft 324kts
26-Jun-16 18:28 51.034522 -113.937085 24 17114ft 308kts
26-Jun-16 18:29 51.103783 -113.985891 294 17117ft 306kts
26-Jun-16 18:30 51.067342 -114.091257 191 17115ft 324kts
26-Jun-16 18:31 51.007792 -114.009984 86 17117ft 319kts
26-Jun-16 18:32 51.053871 -113.936625 359 17116ft 304kts
26-Jun-16 18:33 51.105071 -114.047015 252 17109ft 311kts
26-Jun-16 18:34 51.045091 -114.095113 164 17117ft 324kts
26-Jun-16 18:35 51.013330 -113.981236 60 17118ft 314kts
26-Jun-16 18:36 51.086153 -113.960649 322 17123ft 304kts
26-Jun-16 18:37 51.093208 -114.079612 225 17119ft 316kts
26-Jun-16 18:38 51.015126 -114.063002 120 17118ft 323kts
26-Jun-16 18:39 51.040349 -113.948504 16 17119ft 306kts
26-Jun-16 18:40 51.106592 -114.009771 286 17109ft 306kts
26-Jun-16 18:41 51.059234 -114.104493 181 17115ft 323kts
26-Jun-16 18:42 51.008816 -114.008510 76 17120ft 318kts
26-Jun-16 18:43 51.075316 -113.955750 334 17127ft 304kts
26-Jun-16 18:44 51.101889 -114.067887 241 17115ft 313kts
26-Jun-16 18:45 51.022670 -114.088237 155 16679ft 341kts
26-Jun-16 18:46 50.945319 -114.035121 157 17481ft 316kts
26-Jun-16 18:47 50.883009 -113.951127 106 17881ft 307kts
26-Jun-16 18:48 50.928266 -113.861172 348 16333ft 340kts
26-Jun-16 18:49 51.007597 -113.955642 337 11140ft 352kts
26-Jun-16 18:50 51.040167 -113.960333 359 10069ft 332kts
26-Jun-16 18:51 51.040167 -113.960333 359 10069ft 332kts
26-Jun-16 18:52 51.040167 -113.960333 359 10069ft 332kts
26-Jun-16 18:53 51.040167 -113.960333 359 10069ft 332kts
26-Jun-16 18:54 51.040167 -113.960333 359 10069ft 332kts
26-Jun-16 18:55 51.040167 -113.960333 359 10069ft 332kts
26-Jun-16 18:56 51.040167 -113.960333 359 10069ft 332kts
26-Jun-16 18:57 51.040167 -113.960333 359 10069ft 332kts
26-Jun-16 18:58 51.040167 -113.960333 359 10069ft 332kts
26-Jun-16 18:59 51.040167 -113.960333 359 10069ft 332kts
26-Jun-16 19:00 51.040167 -113.960333 359 10069ft 332kts
26-Jun-16 19:01 51.040167 -113.960333 359 10069ft 332kts
26-Jun-16 19:02 51.040167 -113.960333 359 10069ft 332kts
26-Jun-16 19:03 51.040167 -113.960333 359 10069ft 332kts
26-Jun-16 19:04 51.040167 -113.960333 359 10069ft 332kts
26-Jun-16 19:05 51.040167 -113.960333 359 10069ft 332kts
26-Jun-16 19:06 51.040167 -113.960333 359 10069ft 332kts
26-Jun-16 19:07 51.040167 -113.960333 359 10069ft 332kts
26-Jun-16 19:08 51.040167 -113.960333 359 10069ft 332kts
26-Jun-16 19:09 51.040167 -113.960333 359 10069ft 332kts
26-Jun-16 19:10 51.040167 -113.960333 359 10069ft 332kts
26-Jun-16 19:11 51.040167 -113.960333 359 10069ft 332kts
26-Jun-16 19:12 51.040167 -113.960333 359 10069ft 332kts
26-Jun-16 19:13 51.040167 -113.960333 359 10069ft 332kts
26-Jun-16 19:14 51.040167 -113.960333 359 10069ft 332kts
26-Jun-16 19:15 51.040167 -113.960333 359 10069ft 332kts
26-Jun-16 19:16 51.040167 -113.960333 359 10069ft 332kts
26-Jun-16 19:17 51.040167 -113.960333 359 10069ft 332kts
26-Jun-16 19:18 51.040167 -113.960333 359 10069ft 332kts
26-Jun-16 19:19 51.040167 -113.960333 359 10069ft 332kts
26-Jun-16 19:20 51.040167 -113.960333 359 10069ft 332kts
26-Jun-16 19:21 51.040167 -113.960333 359 10069ft 332kts
26-Jun-16 19:22 51.040167 -113.960333 359 10069ft 332kts
26-Jun-16 19:23 51.040167 -113.960333 359 10069ft 332kts
26-Jun-16 19:24 51.057463 -113.959873 0 10233ft 297kts
26-Jun-16 19:25 51.126949 -113.953301 3 11383ft 232kts
26-Jun-16 19:26 51.198591 -113.943910 1 11302ft 299kts
26-Jun-16 19:27 51.264671 -113.932379 5 10465ft 197kts
26-Jun-16 19:28 51.304464 -113.961821 256 8992ft 210kts
26-Jun-16 19:29 51.269153 -113.995208 206 8178ft 199kts
26-Jun-16 19:30 51.269153 -113.995208 206 8178ft 199kts
26-Jun-16 19:31 51.229138 -114.020533 196 6044ft 180kts
26-Jun-16 19:32 51.180739 -114.024250 177 4625ft 170kts
26-Jun-16 19:33 51.134594 -114.021734 176 3745ft 149kts
26-Jun-16 19:34 51.127869 -114.021615 179 3568ft 0kts

Navigation Log

Ident Type
Flight plan parsing failed, navigation log unavailable